Time;durP1;ratioP1;P1;durP2;ratioP2;P2;SDS_P1;SDS_P2;PMS_P1;PMS_P2;Temp;Humidity;BMP_temperature;BMP_pressure;BME280_temperature;BME280_humidity;BME280_pressure;Samples;Min_cycle;Max_cycle;Signal;HPM_P1;HPM_P2
2022/03/09 00:02:14;;;;;;;3.33;2.63;;;;;;;17.15;46.92;97035.53;10280819;28;20036;-21
2022/03/09 00:07:15;;;;;;;7.00;2.13;;;;;;;17.15;46.81;97027.94;10273442;28;20043;-21
2022/03/09 00:12:15;;;;;;;5.40;2.77;;;;;;;17.12;47.09;97022.00;10283517;28;20287;-21
2022/03/09 00:17:16;;;;;;;3.15;2.85;;;;;;;17.18;47.23;97032.19;10280452;28;20035;-20
2022/03/09 00:22:17;;;;;;;4.77;2.97;;;;;;;17.20;48.91;97033.03;10286006;28;20042;-20
2022/03/09 00:27:19;;;;;;;5.43;3.38;;;;;;;17.14;49.09;97025.41;10292146;28;20290;-21
2022/03/09 00:32:19;;;;;;;4.80;2.72;;;;;;;17.16;47.15;97049.03;10281275;28;20062;-21
2022/03/09 00:37:20;;;;;;;3.33;2.27;;;;;;;17.12;47.37;97039.72;10278165;28;20057;-22
2022/03/09 00:42:21;;;;;;;2.90;2.40;;;;;;;17.15;46.95;97057.47;10282709;28;20078;-22
2022/03/09 00:47:21;;;;;;;6.47;2.73;;;;;;;17.16;47.23;97064.22;10281291;28;20042;-22
2022/03/09 00:52:22;;;;;;;3.80;2.57;;;;;;;17.15;47.03;97072.66;10281068;28;20291;-22
2022/03/09 00:57:22;;;;;;;3.70;2.33;;;;;;;17.13;47.02;97064.16;10282416;28;20582;-21
2022/03/09 01:02:23;;;;;;;3.25;2.03;;;;;;;17.08;46.69;97065.81;10274904;28;20352;-21
2022/03/09 01:07:23;;;;;;;4.53;2.55;;;;;;;17.14;46.98;97071.78;10273140;28;20031;-21
2022/03/09 01:12:24;;;;;;;4.93;2.58;;;;;;;17.13;48.03;97071.75;10287158;28;20085;-22
2022/03/09 01:17:26;;;;;;;4.47;2.40;;;;;;;17.16;47.23;97076.88;10284656;28;20486;-21
2022/03/09 01:22:26;;;;;;;4.82;2.63;;;;;;;17.13;47.48;97079.34;10279441;28;20035;-22
2022/03/09 01:27:27;;;;;;;5.15;2.45;;;;;;;17.16;48.47;97080.22;10286257;28;20030;-21
2022/03/09 01:32:27;;;;;;;6.25;2.50;;;;;;;17.16;49.61;97075.19;10282007;28;20039;-21
2022/03/09 01:37:28;;;;;;;3.95;2.03;;;;;;;17.16;49.07;97072.66;10280059;28;20023;-21
2022/03/09 01:42:28;;;;;;;2.75;2.40;;;;;;;17.16;47.79;97076.88;10283110;28;20039;-21
2022/03/09 01:47:29;;;;;;;3.60;2.10;;;;;;;17.11;47.03;97073.44;10271176;28;20039;-24
2022/03/09 01:52:29;;;;;;;2.75;2.47;;;;;;;17.15;47.06;97093.72;10286990;28;20031;-23
2022/03/09 01:57:31;;;;;;;4.07;2.40;;;;;;;17.14;46.90;97076.03;10281713;28;20038;-22
2022/03/09 02:02:32;;;;;;;3.97;2.83;;;;;;;17.15;47.35;97082.78;10265798;28;20095;-22
2022/03/09 02:12:56;;;;;;;3.53;2.03;;;;;;;17.13;47.32;97071.75;10274474;28;20037;-22
2022/03/09 02:17:59;;;;;;;3.90;2.15;;;;;;;17.16;47.25;97075.19;10281849;28;20034;-20
2022/03/09 02:23:01;;;;;;;2.72;1.90;;;;;;;17.13;47.29;97064.16;10283760;28;20062;-21
2022/03/09 02:28:01;;;;;;;3.10;2.20;;;;;;;17.15;47.20;97065.06;10277310;28;20038;-22
2022/03/09 02:33:03;;;;;;;3.47;2.55;;;;;;;17.09;46.70;97063.28;10280624;28;20105;-22
2022/03/09 02:38:03;;;;;;;4.07;2.38;;;;;;;17.16;48.94;97072.66;10282584;28;20467;-21
2022/03/09 02:43:03;;;;;;;2.83;2.23;;;;;;;17.15;49.53;97067.59;10274441;28;20041;-21
2022/03/09 02:48:04;;;;;;;3.40;1.87;;;;;;;17.15;47.80;97067.59;10272285;28;20118;-21
2022/03/09 02:53:04;;;;;;;3.67;2.25;;;;;;;17.15;47.38;97070.13;10283461;28;20293;-21
2022/03/09 02:58:05;;;;;;;2.30;1.60;;;;;;;17.14;46.89;97066.72;10276086;28;20026;-21
2022/03/09 03:03:05;;;;;;;3.67;2.17;;;;;;;17.15;47.00;97073.47;10271060;28;20297;-21
2022/03/09 03:08:05;;;;;;;2.77;2.10;;;;;;;17.17;46.83;97070.97;10277129;28;20034;-24
2022/03/09 03:13:06;;;;;;;2.05;1.85;;;;;;;17.13;46.94;97069.22;10273179;28;20038;-22
2022/03/09 03:18:06;;;;;;;2.80;2.00;;;;;;;17.15;46.98;97077.72;10272802;28;20031;-21
2022/03/09 03:23:07;;;;;;;2.43;1.80;;;;;;;17.12;46.83;97072.59;10281674;28;20030;-22
2022/03/09 03:28:07;;;;;;;4.67;2.43;;;;;;;17.13;47.14;97072.63;10283120;28;20082;-21
2022/03/09 03:33:07;;;;;;;4.30;2.23;;;;;;;17.14;47.00;97076.03;10289304;28;20507;-21
2022/03/09 03:38:09;;;;;;;3.37;2.10;;;;;;;17.17;47.67;97076.03;10289519;28;20482;-22
2022/03/09 03:43:10;;;;;;;3.47;2.40;;;;;;;17.15;47.57;97081.06;10286496;28;20038;-21
2022/03/09 03:48:10;;;;;;;3.45;1.70;;;;;;;17.14;49.31;97081.91;10286226;28;20041;-22
2022/03/09 03:53:11;;;;;;;3.87;2.60;;;;;;;17.12;49.29;97077.66;10291051;28;20041;-23
2022/03/09 03:58:11;;;;;;;5.35;1.90;;;;;;;17.10;47.33;97077.66;10274013;28;20302;-22
2022/03/09 04:03:12;;;;;;;3.78;1.90;;;;;;;17.12;47.25;97087.78;10274262;28;20030;-21
2022/03/09 04:08:12;;;;;;;3.13;2.30;;;;;;;17.04;46.87;97064.94;10284105;28;20034;-21
2022/03/09 04:13:13;;;;;;;5.40;1.80;;;;;;;17.12;47.24;97077.66;10288257;28;20655;-23
2022/03/09 04:18:13;;;;;;;4.68;2.25;;;;;;;17.10;46.78;97081.84;10285173;28;20024;-21
2022/03/09 04:23:13;;;;;;;4.00;2.17;;;;;;;17.09;47.20;97083.53;10284670;28;20542;-21
2022/03/09 04:28:14;;;;;;;3.27;2.80;;;;;;;17.11;46.67;97073.44;10290629;28;20302;-20
2022/03/09 04:33:14;;;;;;;2.60;2.20;;;;;;;17.08;47.12;97071.72;10281652;28;20035;-21
2022/03/09 04:38:15;;;;;;;3.35;1.77;;;;;;;17.03;46.80;97063.25;10288657;28;20034;-21
2022/03/09 04:43:16;;;;;;;3.08;2.30;;;;;;;17.15;47.07;97077.72;10278046;28;20495;-22
2022/03/09 04:48:16;;;;;;;2.30;2.10;;;;;;;17.16;47.11;97079.41;10282222;28;20038;-21
2022/03/09 04:53:17;;;;;;;4.00;1.90;;;;;;;17.16;48.63;97070.13;10283818;28;20040;-21
2022/03/09 04:58:17;;;;;;;2.25;2.00;;;;;;;17.15;49.26;97070.94;10280273;28;20054;-21
2022/03/09 05:03:18;;;;;;;7.00;2.13;;;;;;;17.13;47.72;97065.03;10281864;28;20574;-21
2022/03/09 05:08:18;;;;;;;2.95;2.00;;;;;;;17.21;46.37;97075.22;10280180;28;20583;-21
2022/03/09 05:13:20;;;;;;;2.40;1.60;;;;;;;17.15;46.20;97068.41;10276850;28;20507;-21
2022/03/09 05:18:21;;;;;;;2.80;1.92;;;;;;;17.21;46.86;97070.16;10277344;28;20664;-21
2022/03/09 05:23:21;;;;;;;3.25;2.10;;;;;;;17.23;46.78;97073.59;10284569;28;20047;-21
2022/03/09 05:28:22;;;;;;;3.30;2.27;;;;;;;17.23;46.60;97076.94;10277883;28;20059;-21
2022/03/09 05:33:22;;;;;;;3.00;2.40;;;;;;;17.25;47.48;97080.34;10281947;28;20035;-21
2022/03/09 05:38:23;;;;;;;2.80;1.80;;;;;;;17.27;46.20;97077.81;10285361;28;20023;-22
2022/03/09 05:43:23;;;;;;;7.10;4.50;;;;;;;17.17;44.88;97076.88;10275196;28;20049;-22
2022/03/09 05:48:24;;;;;;;9.17;6.13;;;;;;;16.98;40.65;97080.03;10280492;28;20488;-23
2022/03/09 05:53:24;;;;;;;9.95;7.53;;;;;;;16.70;38.14;97087.28;10276891;28;20294;-21
2022/03/09 05:58:25;;;;;;;8.75;4.97;;;;;;;16.88;44.08;97092.53;10273365;28;20383;-22
2022/03/09 06:03:25;;;;;;;7.13;5.40;;;;;;;17.06;44.20;97095.31;10279153;28;20507;-21
2022/03/09 06:08:25;;;;;;;7.05;4.55;;;;;;;17.12;44.63;97102.97;10263141;28;20114;-22
2022/03/09 06:13:26;;;;;;;8.83;4.70;;;;;;;17.12;44.83;97105.47;10281843;28;20065;-21
2022/03/09 06:18:26;;;;;;;6.40;3.73;;;;;;;17.09;44.89;97085.22;10273586;28;20031;-22
2022/03/09 06:23:26;;;;;;;4.20;3.50;;;;;;;17.15;45.02;97103.00;10283156;28;20039;-22
2022/03/09 06:28:27;;;;;;;10.13;4.27;;;;;;;17.15;45.40;97108.06;10276409;28;20050;-22
2022/03/09 06:33:28;;;;;;;9.75;4.75;;;;;;;17.00;44.26;97110.41;10280470;28;20031;-22
2022/03/09 06:38:28;;;;;;;10.17;4.57;;;;;;;17.05;45.48;97112.16;10285317;28;20022;-22
2022/03/09 06:43:29;;;;;;;10.07;4.40;;;;;;;17.07;45.94;97109.66;10279091;28;20038;-22
2022/03/09 06:48:31;;;;;;;6.32;3.60;;;;;;;17.07;45.71;97115.56;10271372;28;20101;-22
2022/03/09 06:53:31;;;;;;;7.55;3.63;;;;;;;17.07;46.19;97119.78;10280520;28;20486;-21
2022/03/09 06:58:31;;;;;;;7.80;3.37;;;;;;;17.08;45.73;97118.94;10277382;28;20024;-23
2022/03/09 07:03:32;;;;;;;6.57;3.60;;;;;;;17.07;46.49;97122.31;10264635;28;20050;-22
2022/03/09 07:08:32;;;;;;;5.87;3.10;;;;;;;17.07;45.94;97127.38;10276320;28;20035;-22
2022/03/09 07:13:32;;;;;;;7.65;3.17;;;;;;;17.04;47.15;97134.91;10275617;28;20042;-22
2022/03/09 07:18:33;;;;;;;3.13;2.70;;;;;;;17.04;47.32;97134.91;10275638;28;20031;-23
2022/03/09 07:23:33;;;;;;;6.07;3.17;;;;;;;17.03;46.33;97134.06;10282326;28;20086;-22
2022/03/09 07:28:34;;;;;;;3.93;2.97;;;;;;;17.05;46.35;97140.00;10275808;28;20543;-23
2022/03/09 07:33:35;;;;;;;3.17;2.60;;;;;;;17.06;46.57;97140.84;10280992;28;20051;-21
2022/03/09 07:38:38;;;;;;;7.55;2.83;;;;;;;17.05;45.96;97141.66;10273889;28;20708;-22
2022/03/09 07:43:38;;;;;;;3.28;2.35;;;;;;;17.04;46.42;97135.75;10281689;28;20472;-22
2022/03/09 07:48:39;;;;;;;8.80;3.70;;;;;;;17.03;46.20;97140.78;10276122;28;20037;-21
2022/03/09 07:53:42;;;;;;;4.00;2.60;;;;;;;17.04;46.44;97148.41;10282747;28;20063;-22
2022/03/09 07:58:43;;;;;;;2.97;2.38;;;;;;;17.04;46.56;97156.00;10272876;28;20282;-21
2022/03/09 08:03:44;;;;;;;3.97;2.88;;;;;;;17.04;46.19;97162.72;10267377;28;20042;-22
2022/03/09 08:08:44;;;;;;;4.13;3.45;;;;;;;17.04;46.67;97162.72;10274696;28;20089;-22
2022/03/09 08:13:45;;;;;;;3.13;2.55;;;;;;;17.04;46.49;97160.19;10271174;28;20432;-23
2022/03/09 08:18:45;;;;;;;4.17;3.13;;;;;;;17.04;47.52;97167.78;10276786;28;20086;-22
2022/03/09 08:23:46;;;;;;;4.75;2.17;;;;;;;17.01;47.69;97183.78;10283923;28;20722;-22
2022/03/09 08:28:46;;;;;;;3.22;2.50;;;;;;;17.00;46.88;97174.47;10277158;28;20043;-21
2022/03/09 08:33:47;;;;;;;4.35;2.53;;;;;;;17.04;46.48;97177.91;10291024;28;20030;-22
2022/03/09 08:38:48;;;;;;;2.80;2.28;;;;;;;17.03;46.48;97174.53;10288193;28;20031;-22
2022/03/09 08:43:48;;;;;;;2.80;2.17;;;;;;;17.04;46.69;97175.38;10286478;28;20038;-22
2022/03/09 08:48:48;;;;;;;2.73;2.47;;;;;;;17.03;46.74;97184.66;10284220;28;20043;-22
2022/03/09 08:53:49;;;;;;;2.50;2.22;;;;;;;17.04;47.04;97183.81;10283719;28;20370;-22
2022/03/09 08:58:50;;;;;;;3.13;2.40;;;;;;;17.04;46.38;97181.28;10281603;28;20037;-22
2022/03/09 09:03:50;;;;;;;2.73;1.93;;;;;;;17.05;45.84;97187.19;10275671;28;20527;-22
2022/03/09 09:08:51;;;;;;;2.50;2.10;;;;;;;17.04;46.36;97180.44;10278196;28;20305;-22
2022/03/09 09:13:51;;;;;;;3.43;2.40;;;;;;;17.05;46.40;97187.19;10275406;28;20069;-22
2022/03/09 09:18:52;;;;;;;2.47;2.00;;;;;;;17.05;45.93;97177.06;10278276;28;20023;-21
2022/03/09 09:23:52;;;;;;;2.28;1.92;;;;;;;17.05;46.67;97177.06;10284371;28;20042;-21
2022/03/09 09:28:52;;;;;;;2.85;2.10;;;;;;;17.04;47.81;97186.34;10283170;28;20038;-22
2022/03/09 09:33:54;;;;;;;2.50;2.28;;;;;;;17.05;48.54;97189.72;10276333;28;20128;-22
2022/03/09 09:38:54;;;;;;;2.42;2.20;;;;;;;17.05;47.21;97177.06;10286469;28;20038;-21
2022/03/09 09:43:55;;;;;;;2.22;2.03;;;;;;;17.04;46.61;97176.25;10286489;28;20045;-22
2022/03/09 09:48:57;;;;;;;2.65;2.28;;;;;;;17.06;46.88;97174.56;10273374;28;20041;-21
2022/03/09 09:53:58;;;;;;;2.70;2.05;;;;;;;17.09;47.45;97178.81;10280848;28;20479;-23
2022/03/09 09:58:59;;;;;;;2.78;2.13;;;;;;;17.07;47.06;97177.97;10278648;28;20408;-22
2022/03/09 10:03:59;;;;;;;2.40;2.20;;;;;;;17.04;46.68;97176.25;10271518;28;20391;-22
2022/03/09 10:09:04;;;;;;;2.17;1.93;;;;;;;17.06;47.32;97179.63;10279868;28;20038;-21
2022/03/09 10:14:04;;;;;;;2.10;1.92;;;;;;;17.05;47.69;97179.59;10280280;28;20113;-21
2022/03/09 10:19:05;;;;;;;2.40;2.03;;;;;;;17.05;47.07;97166.94;10288940;28;20034;-22
2022/03/09 10:24:08;;;;;;;2.42;1.98;;;;;;;17.04;46.34;97175.38;10288456;28;20134;-21
2022/03/09 10:29:11;;;;;;;2.47;2.28;;;;;;;17.05;47.25;97172.00;10287177;28;20114;-21
2022/03/09 10:34:15;;;;;;;2.35;2.10;;;;;;;17.05;46.74;97167.81;10276378;28;20419;-22
2022/03/09 10:39:16;;;;;;;2.30;2.00;;;;;;;17.04;49.04;97170.31;10284813;28;20035;-21
2022/03/09 10:44:17;;;;;;;2.20;2.00;;;;;;;17.05;48.87;97169.47;10286103;28;20521;-21
2022/03/09 10:49:19;;;;;;;2.00;1.80;;;;;;;17.06;46.98;97168.69;10272443;28;20422;-20
2022/03/09 10:54:22;;;;;;;2.10;1.80;;;;;;;17.06;46.56;97163.63;10284055;28;20035;-21
2022/03/09 10:59:24;;;;;;;3.97;2.08;;;;;;;17.05;47.94;97159.38;10281777;28;20039;-21
2022/03/09 11:04:25;;;;;;;2.47;2.13;;;;;;;17.06;47.76;97161.09;10273139;28;20039;-21
2022/03/09 11:09:25;;;;;;;2.50;2.17;;;;;;;17.07;47.07;97165.31;10277736;28;20035;-21
2022/03/09 11:14:26;;;;;;;3.30;2.00;;;;;;;17.08;47.61;97152.66;10276734;28;20027;-21
2022/03/09 11:19:27;;;;;;;3.43;3.07;;;;;;;17.07;47.31;97150.13;10268181;28;20034;-21
2022/03/09 11:24:31;;;;;;;2.83;2.35;;;;;;;17.07;47.61;97145.06;10281520;28;20042;-21
2022/03/09 11:29:35;;;;;;;2.08;1.88;;;;;;;17.08;47.84;97144.25;10272283;28;20105;-22
2022/03/09 11:34:46;;;;;;;2.13;1.80;;;;;;;17.10;47.89;97145.97;10275117;28;20038;-21
2022/03/09 11:40:06;;;;;;;4.65;3.05;;;;;;;17.06;46.17;97140.84;10284159;28;20031;-21
2022/03/09 11:45:16;;;;;;;3.78;2.88;;;;;;;17.09;48.37;97133.28;10284609;28;20483;-21
2022/03/09 11:50:16;;;;;;;5.47;3.83;;;;;;;17.11;48.57;97137.53;10270446;28;20077;-22
2022/03/09 11:55:18;;;;;;;8.07;4.63;;;;;;;17.11;48.08;97137.53;10280009;28;20031;-22
2022/03/09 12:00:20;;;;;;;7.20;4.43;;;;;;;17.08;47.53;97136.66;10285998;28;20038;-22
2022/03/09 12:05:38;;;;;;;9.25;4.53;;;;;;;17.09;48.06;97134.13;10286001;28;20121;-22
2022/03/09 12:10:49;;;;;;;11.43;4.57;;;;;;;17.09;47.59;97129.06;10285076;28;20510;-21
2022/03/09 12:16:05;;;;;;;7.85;4.43;;;;;;;17.09;47.80;97113.06;10290831;28;20117;-22
2022/03/09 12:21:07;;;;;;;9.15;4.40;;;;;;;17.09;47.35;97110.53;10291040;28;20543;-22
2022/03/09 12:26:08;;;;;;;6.78;3.97;;;;;;;17.08;47.61;97113.88;10286142;28;20039;-22
2022/03/09 12:31:17;;;;;;;6.20;3.75;;;;;;;17.09;47.45;97118.13;10283713;28;20077;-22
2022/03/09 12:36:23;;;;;;;5.10;3.70;;;;;;;17.10;47.03;97117.28;10278255;28;20034;-22
2022/03/09 12:41:39;;;;;;;5.13;2.60;;;;;;;17.11;48.10;97114.78;10282138;28;20686;-21
2022/03/09 12:46:42;;;;;;;20.67;4.77;;;;;;;17.09;47.68;97108.00;10280468;28;20402;-21
2022/03/09 12:51:54;;;;;;;5.63;3.95;;;;;;;17.11;47.10;97106.31;10298904;28;20483;-21
2022/03/09 12:56:54;;;;;;;16.20;7.30;;;;;;;17.10;42.83;97095.38;10294307;28;20026;-22
2022/03/09 13:01:55;;;;;;;10.00;4.77;;;;;;;17.10;48.20;97091.97;10283231;28;20521;-22
2022/03/09 13:07:08;;;;;;;9.93;4.88;;;;;;;17.09;47.50;97087.75;10296843;28;20352;-22
2022/03/09 13:12:10;;;;;;;5.07;3.70;;;;;;;17.08;47.50;97081.00;10289313;28;20088;-23
2022/03/09 13:17:11;;;;;;;6.85;4.68;;;;;;;17.09;47.75;97077.63;10292713;28;20619;-21
2022/03/09 13:22:11;;;;;;;7.53;3.88;;;;;;;17.07;47.00;97071.72;10291445;28;20065;-23
2022/03/09 13:27:15;;;;;;;5.32;3.53;;;;;;;17.08;47.43;97073.41;10284929;28;20042;-22
2022/03/09 13:32:30;;;;;;;5.18;3.72;;;;;;;17.06;47.00;97073.38;10276021;28;20030;-22
2022/03/09 13:37:33;;;;;;;8.00;3.70;;;;;;;17.06;46.89;97062.44;10267263;28;20062;-23
2022/03/09 13:42:39;;;;;;;5.75;3.25;;;;;;;17.07;47.23;97064.13;10289687;28;20082;-22
2022/03/09 13:48:00;;;;;;;5.13;2.83;;;;;;;17.06;47.56;97059.91;10296748;28;20038;-22
2022/03/09 13:53:13;;;;;;;3.78;2.58;;;;;;;17.08;46.39;97050.66;10294124;28;20557;-22
2022/03/09 13:58:16;;;;;;;4.70;3.00;;;;;;;17.06;46.89;97043.03;10298971;28;20332;-21
2022/03/09 14:03:22;;;;;;;9.35;3.60;;;;;;;17.11;49.61;97038.00;10292890;28;20118;-23
2022/03/09 14:08:23;;;;;;;5.95;3.40;;;;;;;17.12;50.11;97044.78;10296995;28;20419;-22
2022/03/09 14:13:23;;;;;;;3.58;3.13;;;;;;;17.13;49.14;97041.41;10308282;28;20027;-22
2022/03/09 14:18:23;;;;;;;3.83;3.33;;;;;;;17.10;47.18;97036.31;10290179;28;20097;-22
2022/03/09 14:23:27;;;;;;;3.22;2.80;;;;;;;17.09;47.71;97034.63;10297556;28;20122;-22
2022/03/09 14:28:30;;;;;;;3.78;2.80;;;;;;;17.08;47.42;97030.41;10306690;28;20031;-22
2022/03/09 14:33:31;;;;;;;5.43;3.22;;;;;;;17.09;46.96;97037.16;10291956;28;20039;-22
2022/03/09 14:38:32;;;;;;;3.35;3.05;;;;;;;17.10;47.18;97036.31;10299057;28;20414;-22
2022/03/09 14:43:32;;;;;;;3.75;3.33;;;;;;;17.05;47.76;97033.75;10296262;28;20465;-21
2022/03/09 14:48:33;;;;;;;4.43;3.00;;;;;;;17.08;46.74;97025.34;10286060;28;20034;-22
2022/03/09 14:53:37;;;;;;;8.50;3.58;;;;;;;17.03;47.07;97025.31;10298014;28;20056;-22
2022/03/09 14:58:50;;;;;;;3.17;2.78;;;;;;;17.10;47.67;97027.06;10300228;28;20027;-22
2022/03/09 15:03:50;;;;;;;3.38;2.60;;;;;;;17.08;46.90;97015.22;10292325;28;20381;-22
2022/03/09 15:08:51;;;;;;;4.20;3.45;;;;;;;17.11;49.36;97016.13;10295429;28;20072;-22
2022/03/09 15:13:51;;;;;;;4.50;3.40;;;;;;;17.15;50.92;97022.06;10293253;28;20035;-22
2022/03/09 15:18:52;;;;;;;7.40;3.53;;;;;;;17.17;50.63;97015.31;10289289;28;20026;-22
2022/03/09 15:23:52;;;;;;;5.43;2.88;;;;;;;17.13;48.92;97008.53;10277983;28;20042;-22
2022/03/09 15:28:53;;;;;;;3.70;2.73;;;;;;;17.12;47.87;97015.28;10281849;28;20118;-22
2022/03/09 15:33:54;;;;;;;2.58;2.30;;;;;;;17.11;47.66;97020.31;10278467;28;20049;-21
2022/03/09 15:38:54;;;;;;;3.10;2.78;;;;;;;17.11;47.13;97023.69;10288031;28;20049;-22
2022/03/09 15:43:55;;;;;;;3.30;2.47;;;;;;;17.12;47.09;97027.06;10286004;28;20039;-22
2022/03/09 15:48:55;;;;;;;3.47;2.72;;;;;;;17.12;46.92;97022.00;10286101;28;20034;-22
2022/03/09 15:53:56;;;;;;;3.05;2.40;;;;;;;17.12;46.69;97024.53;10278972;28;20105;-21
2022/03/09 15:58:57;;;;;;;3.30;2.45;;;;;;;17.12;46.55;97027.06;10294621;28;20198;-22
2022/03/09 16:03:57;;;;;;;3.70;2.42;;;;;;;17.10;46.45;97027.06;10280633;28;20026;-21
2022/03/09 16:08:59;;;;;;;3.85;2.50;;;;;;;17.12;46.84;97016.94;10290003;28;20031;-20
2022/03/09 16:14:00;;;;;;;2.75;2.22;;;;;;;17.10;46.62;97023.69;10259433;28;20035;-22
2022/03/09 16:19:00;;;;;;;4.70;3.53;;;;;;;17.16;50.65;97026.28;10279363;28;20548;-22
2022/03/09 16:24:02;;;;;;;9.55;3.40;;;;;;;17.22;51.60;97041.50;10289549;28;20039;-22
2022/03/09 16:29:02;;;;;;;5.72;3.13;;;;;;;17.19;48.64;97041.47;10292487;28;20034;-23
2022/03/09 16:34:04;;;;;;;4.78;3.08;;;;;;;17.15;46.98;97048.19;10275709;28;20479;-22
2022/03/09 16:39:04;;;;;;;6.63;2.90;;;;;;;17.13;46.90;97044.78;10298956;28;20034;-22
2022/03/09 16:44:05;;;;;;;13.73;4.50;;;;;;;17.16;47.24;97054.09;10298321;28;20035;-22
2022/03/09 16:49:06;;;;;;;6.45;4.40;;;;;;;17.15;47.03;97057.47;10284576;28;20090;-21
2022/03/09 16:54:08;;;;;;;10.40;4.85;;;;;;;17.13;47.65;97064.16;10290453;28;20060;-22
2022/03/09 16:59:08;;;;;;;8.65;5.85;;;;;;;17.09;45.73;97065.00;10294735;28;20717;-22
2022/03/09 17:04:08;;;;;;;11.40;4.13;;;;;;;17.11;47.33;97071.78;10273892;28;20093;-22
2022/03/09 17:09:10;;;;;;;6.53;4.63;;;;;;;17.14;47.93;97081.91;10299951;28;20121;-22
2022/03/09 17:14:10;;;;;;;9.32;4.65;;;;;;;17.13;47.38;97090.34;10300250;28;20695;-22
2022/03/09 17:19:11;;;;;;;6.30;4.07;;;;;;;17.13;47.23;97094.53;10299516;28;20027;-21
2022/03/09 17:24:12;;;;;;;7.88;4.22;;;;;;;17.13;47.39;97099.59;10302454;28;20330;-22
2022/03/09 17:29:13;;;;;;;11.20;5.45;;;;;;;17.21;50.02;97113.19;10289849;28;20471;-21
2022/03/09 17:34:13;;;;;;;9.13;5.30;;;;;;;17.22;50.13;97119.94;10287516;28;20038;-22
2022/03/09 17:39:13;;;;;;;6.03;4.27;;;;;;;17.21;48.50;97124.16;10302691;28;20041;-22
2022/03/09 17:44:14;;;;;;;5.20;3.23;;;;;;;17.17;47.03;97132.53;10278316;28;20274;-22
2022/03/09 17:49:14;;;;;;;5.97;3.93;;;;;;;17.15;47.87;97139.25;10291349;28;20305;-22
2022/03/09 17:54:15;;;;;;;6.63;2.95;;;;;;;17.15;46.95;97144.31;10276406;28;20778;-22
2022/03/09 17:59:15;;;;;;;7.10;4.83;;;;;;;17.17;49.03;97157.00;10276711;28;20406;-21
2022/03/09 18:04:15;;;;;;;5.23;3.43;;;;;;;17.08;47.60;97152.66;10279065;28;20406;-22
2022/03/09 18:09:16;;;;;;;5.83;3.03;;;;;;;17.15;46.69;97171.31;10286038;28;20286;-21
2022/03/09 18:14:17;;;;;;;4.90;2.42;;;;;;;17.12;46.70;97178.84;10288650;28;20035;-22
2022/03/09 18:19:18;;;;;;;5.20;2.80;;;;;;;17.12;46.64;97188.97;10285898;28;20035;-22
2022/03/09 18:24:18;;;;;;;8.33;3.17;;;;;;;17.12;46.45;97179.72;10282096;28;20031;-22
2022/03/09 18:29:19;;;;;;;7.20;3.17;;;;;;;17.11;46.39;97184.75;10301658;28;20034;-21
2022/03/09 18:34:19;;;;;;;3.88;2.45;;;;;;;17.15;46.44;97186.50;10290464;28;20472;-22
2022/03/09 18:39:19;;;;;;;13.60;4.40;;;;;;;17.25;51.53;97188.31;10290578;28;20035;-22
2022/03/09 18:44:20;;;;;;;20.40;4.83;;;;;;;17.28;51.35;97195.94;10290983;28;20380;-22
2022/03/09 18:49:20;;;;;;;6.63;3.43;;;;;;;17.19;47.51;97195.81;10274965;28;20038;-22
2022/03/09 18:54:21;;;;;;;3.33;2.95;;;;;;;17.17;46.82;97205.91;10256981;28;20062;-22
2022/03/09 18:59:23;;;;;;;5.63;3.13;;;;;;;17.14;46.52;97197.44;10279756;28;20042;-21
2022/03/09 19:04:24;;;;;;;5.10;3.28;;;;;;;17.13;47.07;97205.84;10279327;28;20035;-22
2022/03/09 19:09:25;;;;;;;5.60;3.50;;;;;;;17.17;46.88;97207.59;10288205;28;20407;-18
2022/03/09 19:14:26;;;;;;;5.50;2.88;;;;;;;17.15;46.58;97210.09;10285260;28;20502;-22
2022/03/09 19:19:27;;;;;;;24.70;6.15;;;;;;;17.18;48.27;97214.34;10279777;28;20034;-21
2022/03/09 19:24:28;;;;;;;10.70;4.22;;;;;;;17.15;49.77;97210.09;10270973;28;20117;-22
2022/03/09 19:29:28;;;;;;;7.63;3.60;;;;;;;17.10;46.68;97208.34;10273059;28;20086;-25
2022/03/09 19:34:30;;;;;;;11.32;5.28;;;;;;;17.18;51.02;97209.28;10266519;28;20121;-22
2022/03/09 19:39:30;;;;;;;16.10;5.55;;;;;;;17.16;51.87;97201.69;10276286;28;20038;-22
2022/03/09 19:44:31;;;;;;;8.05;4.00;;;;;;;17.20;48.31;97208.50;10281267;28;20030;-22
2022/03/09 19:49:31;;;;;;;5.07;2.95;;;;;;;17.15;46.77;97209.28;10280110;28;20093;-22
2022/03/09 19:54:32;;;;;;;18.87;5.13;;;;;;;17.07;48.99;97214.22;10279070;28;20117;-22
2022/03/09 19:59:32;;;;;;;3.22;2.90;;;;;;;17.03;46.51;97204.03;10285783;28;20042;-22
2022/03/09 20:04:34;;;;;;;5.70;3.33;;;;;;;17.12;46.51;97214.28;10258940;28;20043;-22
2022/03/09 20:09:34;;;;;;;5.05;3.28;;;;;;;17.10;46.49;97213.41;10275080;28;20295;-22
2022/03/09 20:14:34;;;;;;;3.23;2.60;;;;;;;17.11;46.27;97220.16;10282330;28;20512;-22
2022/03/09 20:19:35;;;;;;;6.60;3.33;;;;;;;17.08;47.50;97218.44;10275423;28;20294;-22
2022/03/09 20:24:35;;;;;;;4.80;3.30;;;;;;;17.06;46.31;97209.97;10283731;28;20037;-22
2022/03/09 20:29:36;;;;;;;8.90;4.33;;;;;;;17.18;51.27;97215.22;10282929;28;20899;-22
2022/03/09 20:34:36;;;;;;;6.63;4.43;;;;;;;17.23;51.30;97222.88;10292749;28;20186;-22
2022/03/09 20:39:37;;;;;;;10.40;3.95;;;;;;;17.18;48.15;97215.22;10284567;28;20578;-22
2022/03/09 20:44:38;;;;;;;4.13;3.45;;;;;;;17.12;46.79;97225.25;10272435;28;20575;-23
2022/03/09 20:49:39;;;;;;;4.53;3.00;;;;;;;17.12;47.11;97230.31;10288429;28;20515;-22
2022/03/09 20:54:39;;;;;;;4.67;3.53;;;;;;;17.12;46.39;97234.50;10278669;28;20082;-22
2022/03/09 20:59:40;;;;;;;4.43;3.05;;;;;;;17.11;46.30;97228.63;10292223;28;20286;-21
2022/03/09 21:04:41;;;;;;;3.50;3.20;;;;;;;17.12;46.37;97225.25;10273262;28;20519;-21
2022/03/09 21:09:41;;;;;;;3.90;2.92;;;;;;;17.11;46.62;97220.16;10286629;28;20299;-23
2022/03/09 21:14:41;;;;;;;4.10;3.60;;;;;;;17.12;46.69;97209.22;10288663;28;20038;-20
2022/03/09 21:19:42;;;;;;;4.60;3.70;;;;;;;17.15;46.37;97221.91;10290368;28;20093;-23
2022/03/09 21:30:05;;;;;;;10.68;4.22;;;;;;;17.20;50.74;97223.69;10273710;28;20286;-22
2022/03/09 21:35:07;;;;;;;6.45;4.10;;;;;;;17.24;50.75;97224.56;10280718;28;20039;-24
2022/03/09 21:40:09;;;;;;;4.88;3.17;;;;;;;17.20;47.92;97232.94;10257825;28;20031;-21
2022/03/09 21:45:10;;;;;;;6.30;4.03;;;;;;;17.13;48.40;97221.03;10283268;28;20043;-22
2022/03/09 21:50:11;;;;;;;6.78;3.25;;;;;;;17.15;48.07;97239.63;10278816;28;20415;-21
2022/03/09 21:55:12;;;;;;;5.88;3.13;;;;;;;17.12;46.33;97229.44;10269574;28;20046;-23
2022/03/09 22:00:12;;;;;;;3.90;3.20;;;;;;;17.13;48.01;97237.06;10276009;28;20063;-22
2022/03/09 22:05:13;;;;;;;4.05;3.10;;;;;;;17.12;46.60;97229.44;10277333;28;20039;-22
2022/03/09 22:10:14;;;;;;;4.00;2.80;;;;;;;17.10;46.41;97236.19;10284994;28;20096;-21
2022/03/09 22:15:14;;;;;;;7.82;4.07;;;;;;;17.08;46.69;97228.56;10279467;28;20282;-22
2022/03/09 22:20:15;;;;;;;3.72;2.97;;;;;;;17.11;46.47;97237.88;10291705;28;20494;-22
2022/03/09 22:25:17;;;;;;;4.03;3.25;;;;;;;17.10;46.86;97236.19;10289147;28;20054;-21
2022/03/09 22:30:17;;;;;;;7.68;4.53;;;;;;;17.12;50.54;97229.44;10286286;28;20503;-22
2022/03/09 22:35:18;;;;;;;9.18;3.45;;;;;;;17.17;51.82;97237.97;10283035;28;20027;-22
2022/03/09 22:40:18;;;;;;;7.87;3.33;;;;;;;17.17;51.26;97240.50;10299055;28;20251;-22
2022/03/09 22:45:19;;;;;;;5.23;3.00;;;;;;;17.13;46.94;97237.06;10287791;28;20026;-22
2022/03/09 22:50:19;;;;;;;3.42;3.00;;;;;;;17.13;46.94;97237.06;10288425;28;20031;-21
2022/03/09 22:55:19;;;;;;;3.73;2.90;;;;;;;17.13;47.47;97241.25;10268647;28;20031;-21
2022/03/09 23:00:35;;;;;;;4.40;3.00;;;;;;;17.12;46.69;97237.03;10290575;28;20042;-22
2022/03/09 23:05:36;;;;;;;4.82;3.60;;;;;;;17.10;46.54;97242.09;10275889;28;20059;-22
2022/03/09 23:10:37;;;;;;;5.72;3.50;;;;;;;17.11;47.59;97253.06;10288213;28;20054;-22
2022/03/09 23:15:39;;;;;;;3.53;3.22;;;;;;;17.09;46.61;97249.66;10288054;28;20917;-22
2022/03/09 23:20:39;;;;;;;4.82;3.75;;;;;;;17.08;46.34;97243.72;10291972;28;20114;-21
2022/03/09 23:25:41;;;;;;;4.68;3.13;;;;;;;17.09;46.29;97242.06;10281347;28;20031;-21
2022/03/09 23:30:41;;;;;;;2.95;2.50;;;;;;;17.07;46.88;97236.16;10285211;28;20048;-22